Time;durP1;ratioP1;P1;durP2;ratioP2;P2;SDS_P1;SDS_P2;PMS_P1;PMS_P2;Temp;Humidity;BMP_temperature;BMP_pressure;BME280_temperature;BME280_humidity;BME280_pressure;Samples;Min_cycle;Max_cycle;Signal;HPM_P1;HPM_P2
2023/01/02 00:01:45;;;;;;;25.08;11.60;;;9.50;99.90;;;;;;5035674;28;20043;-63
2023/01/02 00:04:11;;;;;;;22.70;10.82;;;9.50;99.90;;;;;;5036821;28;20547;-63
2023/01/02 00:06:38;;;;;;;22.88;10.38;;;9.60;99.90;;;;;;5019760;28;20067;-64
2023/01/02 00:09:05;;;;;;;22.42;9.95;;;9.70;99.90;;;;;;5034496;28;20591;-65
2023/01/02 00:11:31;;;;;;;22.65;11.18;;;9.50;99.90;;;;;;5035477;28;20316;-67
2023/01/02 00:13:57;;;;;;;19.83;10.93;;;9.60;99.90;;;;;;5037646;28;20041;-64
2023/01/02 00:16:23;;;;;;;25.55;13.35;;;9.60;99.90;;;;;;5019292;28;20037;-63
2023/01/02 00:18:49;;;;;;;22.48;12.45;;;9.60;99.90;;;;;;5019211;28;20045;-65
2023/01/02 00:21:16;;;;;;;24.52;11.80;;;9.60;99.90;;;;;;5017706;28;20040;-64
2023/01/02 00:23:41;;;;;;;25.48;13.57;;;9.50;99.90;;;;;;5019971;28;20107;-64
2023/01/02 00:26:07;;;;;;;27.83;14.10;;;9.60;99.90;;;;;;5037141;28;20067;-65
2023/01/02 00:28:35;;;;;;;28.30;16.00;;;9.60;99.90;;;;;;5036480;28;20690;-64
2023/01/02 00:31:08;;;;;;;34.75;16.38;;;9.60;99.90;;;;;;5003327;28;20041;-64
2023/01/02 00:33:35;;;;;;;32.17;17.83;;;9.40;99.90;;;;;;5019589;28;20056;-64
2023/01/02 00:36:09;;;;;;;32.13;17.45;;;9.70;99.90;;;;;;5017535;28;20036;-63
2023/01/02 00:38:35;;;;;;;34.42;18.50;;;9.50;99.90;;;;;;5020237;28;20055;-64
2023/01/02 00:41:01;;;;;;;31.00;18.15;;;9.70;99.90;;;;;;5036250;28;20033;-62
2023/01/02 00:43:27;;;;;;;28.92;17.58;;;9.50;99.90;;;;;;4993135;28;20049;-64
2023/01/02 00:45:53;;;;;;;27.25;18.08;;;9.70;99.90;;;;;;5019395;28;20047;-63
2023/01/02 00:48:19;;;;;;;21.65;15.68;;;9.60;99.90;;;;;;5001985;28;20802;-65
2023/01/02 00:50:45;;;;;;;31.65;18.50;;;9.60;99.90;;;;;;4996789;28;20079;-65
2023/01/02 00:53:11;;;;;;;27.85;18.40;;;9.80;99.90;;;;;;5038655;28;20438;-63
2023/01/02 00:55:37;;;;;;;27.20;18.17;;;9.70;99.90;;;;;;5019405;28;20422;-65
2023/01/02 00:58:02;;;;;;;28.85;18.70;;;9.70;99.90;;;;;;5020095;28;20558;-63
2023/01/02 01:00:28;;;;;;;24.05;17.15;;;9.80;99.90;;;;;;5037060;28;20444;-65
2023/01/02 01:02:55;;;;;;;25.58;17.48;;;9.70;99.90;;;;;;5000884;28;20044;-64
2023/01/02 01:05:22;;;;;;;29.02;19.98;;;10.00;99.90;;;;;;5018451;28;20228;-65
2023/01/02 01:07:48;;;;;;;30.27;20.15;;;9.70;99.90;;;;;;5037367;28;20728;-64
2023/01/02 01:10:13;;;;;;;35.65;22.10;;;10.00;99.90;;;;;;5019807;28;20280;-63
2023/01/02 01:12:39;;;;;;;31.35;20.10;;;10.00;99.90;;;;;;5036519;28;20098;-64
2023/01/02 01:15:05;;;;;;;45.97;26.27;;;9.90;99.90;;;;;;5039889;28;20099;-65
2023/01/02 01:17:32;;;;;;;32.70;21.50;;;10.00;99.90;;;;;;5041057;28;20040;-64
2023/01/02 01:19:57;;;;;;;41.10;24.48;;;9.80;99.90;;;;;;5006931;28;20309;-63
2023/01/02 01:22:23;;;;;;;42.05;25.10;;;10.00;99.90;;;;;;5021431;28;20053;-64
2023/01/02 01:24:49;;;;;;;38.45;25.00;;;10.00;99.90;;;;;;5041537;28;20072;-64
2023/01/02 01:27:15;;;;;;;45.38;26.25;;;10.10;99.90;;;;;;5039777;28;20503;-64
2023/01/02 01:29:40;;;;;;;41.75;24.77;;;10.00;99.90;;;;;;5005916;28;20048;-63
2023/01/02 01:32:06;;;;;;;46.10;26.05;;;9.90;99.90;;;;;;5021022;28;20044;-64
2023/01/02 01:34:32;;;;;;;38.88;25.80;;;9.90;99.90;;;;;;5041582;28;20041;-64
2023/01/02 01:36:57;;;;;;;43.17;25.45;;;9.90;99.90;;;;;;5021691;28;20076;-64
2023/01/02 01:39:23;;;;;;;44.05;25.92;;;10.30;99.90;;;;;;5040689;28;20367;-64
2023/01/02 01:41:49;;;;;;;42.58;27.98;;;10.30;99.90;;;;;;5022378;28;21128;-64
2023/01/02 01:45:00;;;;;;;55.95;30.65;;;9.90;99.90;;;;;;5039666;28;20037;-65
2023/01/02 01:47:48;;;;;;;47.17;27.42;;;10.10;99.90;;;;;;5016551;28;20045;-62
2023/01/02 01:50:20;;;;;;;53.58;29.80;;;10.00;99.90;;;;;;5040050;28;20068;-64
2023/01/02 01:52:53;;;;;;;51.35;29.83;;;10.00;99.90;;;;;;5023095;28;20047;-64
2023/01/02 01:55:30;;;;;;;;;;;10.30;99.90;;;;;;5021625;28;20577;-63
2023/01/02 01:57:59;;;;;;;65.78;35.80;;;10.20;99.90;;;;;;5040060;28;19921;-64
2023/01/02 02:00:26;;;;;;;62.65;36.67;;;10.30;99.90;;;;;;5022909;28;20052;-64
2023/01/02 02:02:57;;;;;;;55.75;36.60;;;10.20;99.90;;;;;;5022910;28;20097;-64
2023/01/02 02:05:26;;;;;;;73.72;40.83;;;9.90;99.90;;;;;;5022439;28;20067;-64
2023/01/02 02:07:58;;;;;;;60.50;37.35;;;10.00;99.90;;;;;;5040138;28;20453;-64
2023/01/02 02:10:24;;;;;;;70.57;42.65;;;10.00;99.90;;;;;;5040902;28;20064;-64
2023/01/02 02:12:50;;;;;;;75.53;43.85;;;10.30;99.90;;;;;;5040099;28;20431;-64
2023/01/02 02:15:20;;;;;;;77.47;45.63;;;10.30;99.90;;;;;;5040834;28;20033;-64
2023/01/02 02:18:17;;;;;;;72.30;43.25;;;10.00;99.90;;;;;;5040410;28;20040;-63
2023/01/02 02:21:36;;;;;;;78.60;47.55;;;10.30;99.90;;;;;;5023299;28;20049;-63
2023/01/02 02:24:20;;;;;;;89.22;49.05;;;10.30;99.90;;;;;;4935387;28;20081;-65
2023/01/02 02:26:46;;;;;;;78.00;47.00;;;10.40;99.90;;;;;;4951393;28;20038;-64
2023/01/02 02:29:51;;;;;;;82.30;48.35;;;10.10;99.90;;;;;;5008574;28;20041;-65
2023/01/02 02:32:23;;;;;;;76.00;46.03;;;10.40;99.90;;;;;;5021035;28;20033;-64
2023/01/02 02:35:12;;;;;;;58.40;39.60;;;10.40;99.90;;;;;;5039471;28;20147;-64
2023/01/02 02:37:54;;;;;;;68.20;42.78;;;10.20;99.90;;;;;;5039198;28;20048;-63
2023/01/02 02:40:58;;;;;;;68.47;44.15;;;10.50;99.90;;;;;;5039832;28;20153;-63
2023/01/02 02:43:28;;;;;;;;;;;10.20;99.90;;;;;;5040532;28;20053;-64
2023/01/02 02:46:11;;;;;;;62.25;40.80;;;10.60;99.90;;;;;;5040029;28;19979;-63
2023/01/02 02:49:05;;;;;;;67.77;43.80;;;10.60;99.90;;;;;;5021253;28;20045;-64
2023/01/02 02:52:07;;;;;;;61.80;42.20;;;10.60;99.90;;;;;;5005935;28;20052;-63
2023/01/02 02:55:11;;;;;;;51.58;35.85;;;10.60;99.90;;;;;;5004350;28;20040;-63
2023/01/02 02:57:39;;;;;;;53.63;35.97;;;10.50;99.90;;;;;;5018567;28;20064;-63
2023/01/02 03:00:07;;;;;;;49.78;35.85;;;10.30;99.90;;;;;;5038518;28;20036;-64
2023/01/02 03:02:33;;;;;;;50.72;33.95;;;10.70;99.90;;;;;;5005228;28;20068;-63
2023/01/02 03:05:03;;;;;;;54.38;37.05;;;10.40;99.90;;;;;;5039138;28;20510;-65
2023/01/02 03:07:38;;;;;;;46.95;32.70;;;10.40;99.90;;;;;;5038318;28;20037;-64
2023/01/02 03:10:28;;;;;;;39.17;28.80;;;10.70;99.90;;;;;;5021248;28;20048;-63
2023/01/02 03:13:00;;;;;;;46.80;32.13;;;10.50;99.90;;;;;;5038950;28;20060;-64
2023/01/02 03:16:11;;;;;;;49.03;32.95;;;10.60;99.90;;;;;;5020416;28;20360;-64
2023/01/02 03:19:06;;;;;;;41.80;28.10;;;10.80;99.90;;;;;;4960989;28;20390;-64
2023/01/02 03:22:03;;;;;;;38.63;25.80;;;10.50;99.90;;;;;;5038533;28;20076;-63
2023/01/02 03:24:30;;;;;;;47.00;29.17;;;10.60;99.90;;;;;;5008809;28;20059;-65
2023/01/02 03:27:03;;;;;;;46.30;31.42;;;10.80;99.90;;;;;;5005022;28;20051;-65
2023/01/02 03:29:34;;;;;;;35.67;26.83;;;10.80;99.90;;;;;;5039068;28;20118;-64
2023/01/02 03:32:03;;;;;;;43.35;29.92;;;10.50;99.90;;;;;;5021645;28;20475;-66
2023/01/02 03:34:34;;;;;;;43.47;29.75;;;10.50;99.90;;;;;;5019670;28;20142;-64
2023/01/02 03:37:07;;;;;;;42.33;28.17;;;10.80;99.90;;;;;;5037112;28;20130;-65
2023/01/02 03:39:37;;;;;;;48.75;31.55;;;10.60;99.90;;;;;;5038915;28;20289;-64
2023/01/02 03:42:10;;;;;;;46.90;29.98;;;10.70;99.90;;;;;;5038985;28;20538;-65
2023/01/02 03:44:37;;;;;;;;;;;10.60;99.90;;;;;;5039033;28;20103;-64
2023/01/02 03:47:28;;;;;;;34.97;25.17;;;10.60;99.90;;;;;;5021572;28;19928;-64
2023/01/02 03:49:58;;;;;;;35.70;23.67;;;10.80;99.90;;;;;;5021457;28;20045;-64
2023/01/02 03:52:24;;;;;;;36.42;26.27;;;10.60;99.90;;;;;;5038273;28;20077;-65
2023/01/02 03:54:50;;;;;;;41.35;28.05;;;10.60;99.90;;;;;;5019715;28;20073;-65
2023/01/02 03:57:16;;;;;;;38.08;26.90;;;10.90;99.90;;;;;;5036561;28;20052;-64
2023/01/02 03:59:47;;;;;;;30.48;23.63;;;10.80;99.90;;;;;;5019889;28;20427;-63
2023/01/02 04:02:32;;;;;;;34.97;23.73;;;11.00;99.90;;;;;;5037145;28;20069;-64
2023/01/02 04:05:21;;;;;;;33.88;24.20;;;10.80;99.90;;;;;;5020680;28;20048;-64
2023/01/02 04:08:28;;;;;;;38.90;25.15;;;10.90;99.90;;;;;;5037942;28;20072;-65
2023/01/02 04:10:56;;;;;;;45.13;25.25;;;10.70;99.90;;;;;;5016001;28;20041;-63
2023/01/02 04:13:29;;;;;;;40.13;25.85;;;10.90;99.90;;;;;;5038498;28;20033;-64
2023/01/02 04:15:57;;;;;;;39.90;25.48;;;10.70;99.90;;;;;;5037550;28;20040;-64
2023/01/02 04:18:38;;;;;;;35.75;23.98;;;10.80;99.90;;;;;;5002193;28;20469;-64
2023/01/02 04:21:13;;;;;;;36.58;24.80;;;10.80;99.90;;;;;;5020158;28;20044;-63
2023/01/02 04:24:03;;;;;;;37.00;24.08;;;10.80;99.90;;;;;;5038073;28;20045;-64
2023/01/02 04:26:44;;;;;;;35.90;23.45;;;10.70;99.90;;;;;;5037402;28;20281;-64
2023/01/02 04:29:10;;;;;;;36.30;23.63;;;10.70;99.90;;;;;;5019705;28;20041;-64
2023/01/02 04:31:49;;;;;;;38.75;25.42;;;11.00;99.90;;;;;;5038270;28;20101;-65
2023/01/02 04:34:17;;;;;;;34.50;24.20;;;11.00;99.90;;;;;;5037577;28;20068;-63
2023/01/02 04:36:43;;;;;;;41.03;25.10;;;11.00;99.90;;;;;;5037181;28;20049;-64
2023/01/02 04:39:09;;;;;;;34.30;22.88;;;11.00;99.90;;;;;;5019111;28;20060;-63
2023/01/02 04:41:36;;;;;;;39.72;24.58;;;10.80;99.90;;;;;;5019411;28;20045;-63
2023/01/02 04:44:02;;;;;;;38.60;22.95;;;10.90;99.90;;;;;;5019355;28;20045;-63
2023/01/02 04:46:28;;;;;;;29.20;22.63;;;11.00;99.90;;;;;;5003168;28;20052;-65
2023/01/02 04:48:55;;;;;;;35.92;23.00;;;11.10;99.90;;;;;;5019338;28;20033;-64
2023/01/02 04:51:21;;;;;;;37.08;23.10;;;10.90;99.90;;;;;;5019098;28;20033;-64
2023/01/02 04:53:50;;;;;;;40.08;26.55;;;11.00;99.90;;;;;;5038933;28;20715;-64
2023/01/02 04:56:16;;;;;;;33.03;22.52;;;10.90;99.90;;;;;;5037302;28;20565;-64
2023/01/02 04:58:43;;;;;;;33.67;23.55;;;10.90;99.90;;;;;;5002308;28;20041;-64
2023/01/02 05:01:10;;;;;;;37.03;23.83;;;10.80;99.90;;;;;;5036120;28;20029;-63
2023/01/02 05:03:41;;;;;;;40.67;27.63;;;10.80;99.90;;;;;;5037591;28;20465;-63
2023/01/02 05:06:07;;;;;;;44.58;26.65;;;10.80;99.90;;;;;;5037079;28;20115;-65
2023/01/02 05:08:33;;;;;;;50.25;30.98;;;11.00;99.90;;;;;;5016954;28;20498;-64
2023/01/02 05:11:07;;;;;;;45.17;28.45;;;10.80;99.90;;;;;;5002674;28;20037;-65
2023/01/02 05:13:33;;;;;;;44.35;27.05;;;11.10;99.90;;;;;;5018580;28;20084;-65
2023/01/02 05:15:59;;;;;;;40.92;25.65;;;11.00;99.90;;;;;;5019893;28;20174;-65
2023/01/02 05:18:28;;;;;;;42.13;26.85;;;11.10;99.90;;;;;;5018460;28;20065;-66
2023/01/02 05:21:06;;;;;;;34.00;21.75;;;11.10;99.90;;;;;;5019853;28;20048;-65
2023/01/02 05:23:50;;;;;;;40.78;24.38;;;11.10;99.90;;;;;;5038154;28;20501;-64
2023/01/02 05:26:17;;;;;;;33.53;22.40;;;11.10;99.90;;;;;;5020070;28;20616;-64
2023/01/02 05:28:42;;;;;;;34.10;21.55;;;10.90;99.90;;;;;;5018818;28;20041;-64
2023/01/02 05:31:09;;;;;;;34.00;21.77;;;11.20;99.90;;;;;;5037822;28;20571;-63
2023/01/02 05:33:35;;;;;;;31.02;20.48;;;10.80;99.90;;;;;;4988410;28;20048;-63
2023/01/02 05:36:02;;;;;;;25.40;17.92;;;10.90;99.90;;;;;;5002592;28;20098;-64
2023/01/02 05:38:31;;;;;;;28.65;20.02;;;11.00;99.90;;;;;;5021949;28;20063;-64
2023/01/02 05:41:03;;;;;;;31.10;19.27;;;10.80;99.90;;;;;;5020997;28;20040;-66
2023/01/02 05:43:31;;;;;;;28.27;19.20;;;11.10;99.90;;;;;;5020050;28;20049;-63
2023/01/02 05:45:57;;;;;;;28.98;18.58;;;10.80;99.90;;;;;;5020688;28;20053;-63
2023/01/02 05:48:23;;;;;;;24.80;18.08;;;11.10;99.90;;;;;;5003176;28;20036;-64
2023/01/02 05:50:48;;;;;;;37.15;22.77;;;10.80;99.90;;;;;;5001991;28;20032;-64
2023/01/02 05:53:15;;;;;;;32.42;21.70;;;11.20;99.90;;;;;;5019941;28;20151;-65
2023/01/02 05:55:41;;;;;;;21.13;17.17;;;10.80;99.90;;;;;;5017672;28;20044;-63
2023/01/02 05:58:06;;;;;;;29.00;19.02;;;10.90;99.90;;;;;;5036387;28;20088;-63
2023/01/02 06:00:32;;;;;;;29.40;19.70;;;11.00;99.90;;;;;;5037661;28;20052;-63
2023/01/02 06:02:57;;;;;;;32.83;20.73;;;11.00;99.90;;;;;;5021834;28;20411;-64
2023/01/02 06:05:23;;;;;;;31.00;20.67;;;11.20;99.90;;;;;;5021347;28;20041;-64
2023/01/02 06:07:49;;;;;;;41.97;24.33;;;11.00;99.90;;;;;;5039496;28;20053;-63
2023/01/02 06:10:15;;;;;;;45.25;26.95;;;11.10;99.90;;;;;;5022139;28;20114;-63
2023/01/02 06:12:40;;;;;;;28.15;18.67;;;10.80;99.90;;;;;;4991018;28;20492;-63
2023/01/02 06:15:06;;;;;;;34.38;22.35;;;11.10;99.90;;;;;;5039966;28;20041;-63
2023/01/02 06:17:32;;;;;;;36.80;22.02;;;11.10;99.90;;;;;;5022187;28;20037;-63
2023/01/02 06:19:58;;;;;;;29.27;20.98;;;11.10;99.90;;;;;;5022703;28;20286;-64
2023/01/02 06:22:24;;;;;;;31.13;20.83;;;11.10;99.90;;;;;;5041275;28;20045;-65
2023/01/02 06:24:49;;;;;;;25.27;18.70;;;10.80;99.90;;;;;;5023489;28;20037;-63
2023/01/02 06:27:15;;;;;;;27.92;20.02;;;11.10;99.90;;;;;;5023333;28;20051;-63
2023/01/02 06:29:41;;;;;;;25.70;19.23;;;10.90;99.90;;;;;;5023040;28;20116;-65
2023/01/02 06:32:06;;;;;;;27.45;19.45;;;11.10;99.90;;;;;;5019716;28;20114;-63
2023/01/02 06:34:32;;;;;;;32.50;21.83;;;11.20;99.90;;;;;;5039490;28;20049;-62
2023/01/02 06:36:57;;;;;;;24.38;17.65;;;11.00;99.90;;;;;;5005952;28;20060;-63
2023/01/02 06:39:23;;;;;;;31.13;21.02;;;10.80;99.90;;;;;;5040135;28;20200;-63
2023/01/02 06:41:50;;;;;;;28.35;20.92;;;10.80;99.90;;;;;;5021451;28;20380;-64
2023/01/02 06:44:16;;;;;;;34.60;22.80;;;10.90;99.90;;;;;;5040373;28;20045;-63
2023/01/02 06:46:42;;;;;;;27.30;18.17;;;10.90;99.90;;;;;;5040723;28;20463;-63
2023/01/02 06:49:07;;;;;;;20.60;14.82;;;10.90;99.90;;;;;;5005713;28;20052;-63
2023/01/02 06:51:33;;;;;;;22.27;15.55;;;11.10;99.90;;;;;;5022741;28;20040;-65
2023/01/02 06:53:58;;;;;;;23.77;15.15;;;11.10;99.90;;;;;;5022217;28;20041;-64
2023/01/02 06:56:24;;;;;;;16.55;11.80;;;11.00;99.90;;;;;;5021506;28;20041;-64
2023/01/02 06:58:50;;;;;;;16.65;12.70;;;11.10;99.90;;;;;;5019881;28;20052;-65
2023/01/02 07:01:20;;;;;;;13.77;9.75;;;11.00;99.90;;;;;;5007483;28;20544;-64
2023/01/02 07:03:46;;;;;;;10.65;9.02;;;10.90;99.90;;;;;;5022269;28;20083;-63
2023/01/02 07:06:14;;;;;;;10.20;9.10;;;11.20;99.90;;;;;;5022493;28;20092;-64
2023/01/02 07:08:42;;;;;;;7.70;6.97;;;10.80;99.90;;;;;;5020924;28;20622;-64
2023/01/02 07:11:15;;;;;;;8.13;7.00;;;10.70;99.90;;;;;;5023088;28;20403;-64
2023/01/02 07:13:41;;;;;;;;;;;10.80;99.90;;;;;;5002726;28;20045;-64
2023/01/02 07:16:10;;;;;;;9.25;8.32;;;11.00;99.90;;;;;;5020340;28;19927;-64
2023/01/02 07:18:36;;;;;;;9.70;8.70;;;10.60;99.90;;;;;;5038672;28;20532;-65
2023/01/02 07:21:03;;;;;;;12.02;10.73;;;10.60;99.90;;;;;;5006628;28;20040;-65
2023/01/02 07:23:28;;;;;;;12.15;10.88;;;10.70;99.90;;;;;;5041760;28;20052;-66
2023/01/02 07:25:57;;;;;;;11.40;10.00;;;10.90;99.90;;;;;;5022628;28;20037;-65
2023/01/02 07:28:23;;;;;;;7.57;5.32;;;10.60;99.90;;;;;;5022714;28;20123;-66
2023/01/02 07:30:49;;;;;;;8.40;5.43;;;10.30;99.90;;;;;;5003009;28;20036;-67
2023/01/02 07:33:15;;;;;;;12.38;6.00;;;9.70;99.90;;;;;;5006334;28;20041;-64
2023/01/02 07:35:42;;;;;;;11.80;5.75;;;9.90;99.90;;;;;;5021746;28;20044;-67
2023/01/02 07:38:09;;;;;;;11.48;5.97;;;9.50;99.90;;;;;;5040308;28;20045;-65
2023/01/02 07:40:34;;;;;;;9.77;4.93;;;9.60;99.90;;;;;;5038548;28;20052;-67
2023/01/02 07:43:00;;;;;;;13.10;5.95;;;9.20;99.90;;;;;;5020656;28;20041;-66
2023/01/02 07:45:26;;;;;;;11.80;4.72;;;8.90;99.90;;;;;;5004061;28;20334;-66
2023/01/02 07:47:51;;;;;;;7.20;2.80;;;9.00;99.90;;;;;;5018761;28;20128;-66
2023/01/02 07:50:17;;;;;;;4.30;2.00;;;8.50;99.90;;;;;;5019321;28;20045;-67
2023/01/02 07:52:43;;;;;;;5.97;1.63;;;9.00;99.90;;;;;;5019189;28;20040;-66
2023/01/02 07:55:09;;;;;;;6.72;2.17;;;8.90;99.90;;;;;;5018760;28;20089;-66
2023/01/02 07:57:35;;;;;;;3.30;1.73;;;8.20;99.90;;;;;;5038069;28;20045;-67
2023/01/02 08:00:01;;;;;;;3.45;1.70;;;8.30;99.90;;;;;;5017335;28;20113;-67
2023/01/02 08:02:26;;;;;;;6.03;2.03;;;8.10;99.90;;;;;;5037090;28;20576;-66
2023/01/02 08:04:52;;;;;;;7.05;3.13;;;8.30;99.90;;;;;;5037858;28;20025;-66
2023/01/02 08:07:18;;;;;;;9.30;4.53;;;8.60;99.90;;;;;;5021901;28;20095;-66
2023/01/02 08:09:43;;;;;;;8.95;5.63;;;8.60;99.90;;;;;;5038394;28;20053;-66
2023/01/02 08:12:10;;;;;;;9.75;5.97;;;7.90;99.90;;;;;;5039713;28;20045;-67
2023/01/02 08:14:36;;;;;;;6.88;4.10;;;8.50;99.90;;;;;;5008414;28;20049;-68
2023/01/02 08:17:01;;;;;;;7.40;4.25;;;8.30;99.90;;;;;;5004274;28;20052;-67
2023/01/02 08:19:27;;;;;;;5.78;3.40;;;8.00;99.90;;;;;;5038443;28;20258;-68
2023/01/02 08:21:53;;;;;;;5.22;2.65;;;8.20;99.90;;;;;;5037352;28;20076;-67
2023/01/02 08:24:18;;;;;;;5.13;2.78;;;7.90;99.90;;;;;;5037059;28;20094;-67
2023/01/02 08:26:44;;;;;;;5.88;2.33;;;8.10;99.90;;;;;;5004390;28;20052;-66
2023/01/02 08:29:10;;;;;;;3.95;2.40;;;8.20;99.90;;;;;;5019596;28;20131;-67
2023/01/02 08:31:35;;;;;;;4.57;2.40;;;8.10;99.90;;;;;;5019664;28;20382;-67
2023/01/02 08:34:01;;;;;;;5.82;2.47;;;7.70;99.90;;;;;;5004962;28;20041;-66
2023/01/02 08:36:27;;;;;;;5.10;1.83;;;8.30;99.90;;;;;;5017911;28;20092;-66
2023/01/02 08:38:52;;;;;;;3.30;1.55;;;7.70;99.90;;;;;;5003808;28;20036;-66
2023/01/02 08:41:30;;;;;;;3.80;1.50;;;8.40;99.90;;;;;;5019384;28;20047;-67
2023/01/02 08:43:56;;;;;;;4.95;1.50;;;8.10;99.90;;;;;;5004995;28;20135;-67
2023/01/02 08:46:22;;;;;;;6.55;1.05;;;8.10;99.90;;;;;;5021031;28;20037;-66
2023/01/02 08:48:47;;;;;;;6.13;1.20;;;8.30;99.90;;;;;;5004912;28;20122;-68
2023/01/02 08:51:13;;;;;;;5.60;1.00;;;8.10;99.90;;;;;;5020598;28;20040;-66
2023/01/02 08:53:39;;;;;;;3.90;1.10;;;7.80;99.90;;;;;;5020932;28;20044;-68
2023/01/02 08:56:26;;;;;;;4.97;1.13;;;8.40;99.90;;;;;;5004149;28;20048;-67
2023/01/02 08:58:59;;;;;;;7.20;1.38;;;7.70;99.90;;;;;;5021004;28;20033;-67
2023/01/02 09:01:27;;;;;;;4.75;0.95;;;8.00;99.90;;;;;;5003565;28;20041;-67
2023/01/02 09:03:54;;;;;;;5.65;0.90;;;7.80;99.90;;;;;;5021338;28;20037;-67
2023/01/02 09:06:20;;;;;;;5.13;1.25;;;8.10;99.90;;;;;;5021110;28;20044;-67
2023/01/02 09:08:46;;;;;;;7.80;1.30;;;8.40;99.90;;;;;;5004443;28;20053;-67
2023/01/02 09:11:17;;;;;;;6.40;1.35;;;8.10;99.90;;;;;;5039195;28;20744;-66
2023/01/02 09:13:43;;;;;;;9.20;1.60;;;8.10;99.90;;;;;;5021446;28;20494;-66
2023/01/02 09:16:09;;;;;;;5.88;1.38;;;7.90;99.90;;;;;;5020332;28;20044;-66
2023/01/02 09:18:36;;;;;;;5.82;1.33;;;7.80;99.90;;;;;;5037383;28;20063;-66
2023/01/02 09:21:02;;;;;;;8.70;1.50;;;8.00;99.90;;;;;;5038411;28;20049;-66
2023/01/02 09:23:29;;;;;;;8.07;1.65;;;8.30;99.90;;;;;;5038978;28;20511;-66
2023/01/02 09:26:13;;;;;;;6.85;2.05;;;7.90;99.90;;;;;;5020284;28;20055;-66
2023/01/02 09:28:39;;;;;;;5.22;1.30;;;7.90;99.90;;;;;;5004444;28;20180;-67
2023/01/02 09:31:06;;;;;;;6.75;1.33;;;8.20;99.90;;;;;;5038867;28;20043;-65
2023/01/02 09:33:32;;;;;;;5.90;1.45;;;7.90;99.90;;;;;;5020654;28;20052;-65
2023/01/02 09:36:03;;;;;;;4.80;1.40;;;8.40;99.90;;;;;;5006441;28;20049;-65
2023/01/02 09:38:29;;;;;;;6.55;2.20;;;8.50;99.90;;;;;;5008747;28;20046;-65
2023/01/02 09:40:56;;;;;;;5.72;1.40;;;8.40;99.90;;;;;;5024624;28;20044;-65
2023/01/02 09:43:45;;;;;;;7.97;1.38;;;8.50;99.90;;;;;;5025110;28;20106;-65
2023/01/02 09:46:47;;;;;;;9.10;1.70;;;7.80;99.90;;;;;;5023421;28;20041;-66
2023/01/02 09:49:22;;;;;;;7.38;1.60;;;7.80;99.90;;;;;;5023910;28;20053;-65
2023/01/02 09:51:49;;;;;;;7.47;1.40;;;8.20;99.90;;;;;;5023842;28;20563;-65
2023/01/02 09:54:25;;;;;;;11.07;1.30;;;8.00;99.90;;;;;;5023952;28;20041;-66
2023/01/02 09:57:14;;;;;;;3.10;0.60;;;8.20;99.90;;;;;;5041766;28;20041;-66
2023/01/02 09:59:58;;;;;;;6.97;0.88;;;8.00;99.90;;;;;;5042341;28;20123;-66
2023/01/02 10:03:10;;;;;;;3.60;0.60;;;8.50;99.90;;;;;;5041551;28;20453;-65
2023/01/02 10:06:00;;;;;;;5.35;0.60;;;8.10;99.90;;;;;;4989584;28;20075;-66
2023/01/02 10:09:02;;;;;;;4.60;0.77;;;8.30;99.90;;;;;;5041854;28;20477;-66
2023/01/02 10:11:43;;;;;;;3.15;0.68;;;8.30;99.90;;;;;;5022596;28;20083;-66
2023/01/02 10:14:15;;;;;;;3.33;0.98;;;8.10;99.90;;;;;;5042037;28;20112;-66
2023/01/02 10:16:45;;;;;;;4.43;1.40;;;8.30;99.90;;;;;;5007881;28;20048;-66
2023/01/02 10:19:40;;;;;;;6.10;1.27;;;8.30;99.90;;;;;;5023943;28;20376;-65
2023/01/02 10:22:10;;;;;;;5.93;0.93;;;8.60;99.90;;;;;;4990324;28;20068;-65
2023/01/02 10:24:53;;;;;;;4.38;1.30;;;8.40;99.90;;;;;;5023881;28;20113;-65
2023/01/02 10:27:24;;;;;;;4.22;1.08;;;8.70;99.90;;;;;;5041597;28;20048;-65
2023/01/02 10:30:13;;;;;;;5.20;1.40;;;8.50;99.90;;;;;;5024265;28;20033;-66
2023/01/02 10:32:45;;;;;;;4.97;1.67;;;8.80;99.90;;;;;;5041640;28;20044;-67
2023/01/02 10:35:39;;;;;;;3.58;1.27;;;8.80;99.90;;;;;;5024060;28;20533;-67
2023/01/02 10:38:05;;;;;;;5.97;1.63;;;8.50;99.90;;;;;;5023203;28;20045;-66
2023/01/02 10:40:32;;;;;;;6.22;1.85;;;8.80;99.90;;;;;;5024882;28;20127;-66
2023/01/02 10:42:58;;;;;;;4.55;1.83;;;8.90;99.90;;;;;;5023764;28;20706;-67
2023/01/02 10:45:24;;;;;;;3.65;1.63;;;8.60;99.90;;;;;;5041590;28;20127;-67
2023/01/02 10:47:50;;;;;;;5.95;1.55;;;8.80;99.90;;;;;;5040288;28;20164;-66
2023/01/02 10:50:22;;;;;;;5.32;1.63;;;8.80;99.90;;;;;;5024156;28;20044;-67
2023/01/02 10:53:05;;;;;;;6.82;2.30;;;8.80;99.90;;;;;;5023309;28;20075;-66
2023/01/02 10:55:41;;;;;;;;;;;8.50;99.90;;;;;;5024305;28;20073;-67
2023/01/02 10:58:22;;;;;;;6.75;2.65;;;8.50;99.90;;;;;;5041134;28;19920;-66
2023/01/02 11:00:51;;;;;;;3.95;1.65;;;8.80;99.90;;;;;;5023380;28;20087;-66
2023/01/02 11:03:21;;;;;;;4.03;1.90;;;8.60;99.90;;;;;;5041066;28;20509;-66
2023/01/02 11:05:57;;;;;;;5.72;1.60;;;8.50;99.90;;;;;;5006592;28;20212;-66
2023/01/02 11:08:36;;;;;;;2.45;1.27;;;8.50;99.90;;;;;;5040517;28;20565;-66
2023/01/02 11:11:13;;;;;;;4.63;1.25;;;8.60;99.90;;;;;;5040995;28;20155;-67
2023/01/02 11:13:56;;;;;;;4.55;1.40;;;8.70;99.90;;;;;;5040595;28;20051;-67
2023/01/02 11:16:25;;;;;;;5.07;0.98;;;8.70;99.90;;;;;;5022291;28;20087;-68
2023/01/02 11:18:57;;;;;;;5.47;1.30;;;8.80;99.90;;;;;;5021556;28;20123;-66
2023/01/02 11:21:32;;;;;;;4.57;1.30;;;8.90;99.90;;;;;;5022736;28;20103;-66
2023/01/02 11:24:01;;;;;;;1.73;0.70;;;8.70;99.90;;;;;;5005723;28;20052;-67
2023/01/02 11:26:28;;;;;;;4.10;0.82;;;8.80;99.90;;;;;;5023276;28;20065;-67
2023/01/02 11:28:59;;;;;;;4.30;0.90;;;8.70;99.90;;;;;;5021141;28;20052;-67
2023/01/02 11:31:24;;;;;;;3.60;0.90;;;8.80;99.90;;;;;;5022673;28;20051;-66
2023/01/02 11:33:50;;;;;;;3.15;0.75;;;8.90;99.90;;;;;;5005299;28;20040;-67
2023/01/02 11:36:18;;;;;;;4.10;0.90;;;8.90;99.90;;;;;;5022418;28;20383;-67
2023/01/02 11:38:48;;;;;;;4.30;1.13;;;8.90;99.90;;;;;;5005128;28;20129;-66
2023/01/02 11:45:00;;;;;;;2.88;0.52;;;9.10;99.90;;;;;;5039704;28;20517;-68
2023/01/02 11:47:34;;;;;;;5.65;1.10;;;9.10;99.90;;;;;;5022055;28;20071;-67
2023/01/02 11:50:01;;;;;;;3.67;1.00;;;9.10;99.90;;;;;;5039781;28;20037;-68
2023/01/02 11:52:43;;;;;;;6.40;0.80;;;9.20;99.90;;;;;;5038885;28;20040;-68
2023/01/02 11:55:25;;;;;;;3.25;0.70;;;9.10;99.90;;;;;;5020641;28;20095;-67
2023/01/02 11:58:00;;;;;;;4.95;1.05;;;9.00;99.90;;;;;;5020917;28;20052;-67
2023/01/02 12:00:30;;;;;;;3.25;0.77;;;9.20;99.90;;;;;;5021623;28;20434;-68
2023/01/02 12:03:12;;;;;;;4.50;0.88;;;9.30;99.90;;;;;;5040136;28;20044;-67
2023/01/02 12:05:42;;;;;;;3.30;0.90;;;9.20;99.90;;;;;;5021500;28;20657;-67
2023/01/02 12:08:30;;;;;;;3.22;0.90;;;9.50;99.90;;;;;;5020999;28;20926;-67
2023/01/02 12:11:11;;;;;;;4.78;0.80;;;9.80;99.90;;;;;;5021405;28;20095;-67
2023/01/02 12:14:08;;;;;;;6.10;1.02;;;9.90;99.90;;;;;;5019009;28;20045;-67
2023/01/02 12:16:37;;;;;;;6.05;0.70;;;10.00;99.90;;;;;;5020757;28;20063;-67
2023/01/02 12:19:33;;;;;;;5.22;0.82;;;9.80;99.90;;;;;;5021608;28;20452;-67
2023/01/02 12:22:19;;;;;;;2.55;0.50;;;9.70;99.90;;;;;;4983574;28;20128;-67
2023/01/02 12:25:12;;;;;;;6.40;0.80;;;9.60;99.90;;;;;;5021171;28;20503;-67
2023/01/02 12:28:12;;;;;;;5.10;0.63;;;9.50;99.90;;;;;;5020405;28;20049;-67
2023/01/02 12:30:47;;;;;;;4.45;0.65;;;9.60;99.90;;;;;;4998462;28;20467;-67
2023/01/02 12:33:48;;;;;;;7.25;0.85;;;9.50;99.90;;;;;;5035856;28;20408;-66
2023/01/02 12:37:00;;;;;;;5.43;0.68;;;9.40;99.90;;;;;;5020028;28;20098;-67
2023/01/02 12:39:53;;;;;;;3.00;0.50;;;9.40;99.90;;;;;;5039677;28;20087;-67
2023/01/02 12:42:46;;;;;;;4.85;0.60;;;9.30;99.90;;;;;;5020639;28;20270;-66
2023/01/02 12:45:45;;;;;;;7.28;0.77;;;9.20;99.90;;;;;;5021262;28;20045;-66
2023/01/02 12:48:51;;;;;;;8.70;0.60;;;9.30;99.90;;;;;;5020047;28;20064;-67
2023/01/02 12:51:54;;;;;;;7.93;0.65;;;9.10;99.90;;;;;;5039174;28;20041;-67
2023/01/02 12:54:53;;;;;;;7.38;0.50;;;9.10;99.90;;;;;;5020018;28;20041;-68
2023/01/02 12:57:22;;;;;;;6.47;0.70;;;9.10;99.90;;;;;;5039104;28;20402;-66
2023/01/02 13:00:26;;;;;;;5.93;0.43;;;9.10;99.90;;;;;;5020339;28;20049;-66
2023/01/02 13:03:17;;;;;;;7.47;0.50;;;9.10;99.90;;;;;;5029780;28;20049;-66
2023/01/02 13:05:52;;;;;;;8.05;0.63;;;9.10;99.90;;;;;;5007127;28;20423;-66
2023/01/02 13:08:26;;;;;;;10.30;0.60;;;9.00;99.90;;;;;;5020977;28;20088;-68
2023/01/02 13:10:54;;;;;;;8.20;0.73;;;9.00;99.90;;;;;;5026534;28;20087;-67
2023/01/02 13:13:24;;;;;;;8.02;0.65;;;9.10;99.90;;;;;;5027102;28;20227;-67
2023/01/02 13:15:51;;;;;;;9.35;1.02;;;9.10;99.90;;;;;;5045839;28;20040;-67